sensor_id;sensor_type;location;lat;lon;timestamp;P1;durP1;ratioP1;P2;durP2;ratioP2
35518;SDS011;21627;48.216;16.482;2023-11-19T00:00:08;17.83;;;9.53;;
35518;SDS011;21627;48.216;16.482;2023-11-19T00:02:40;12.73;;;8.53;;
35518;SDS011;21627;48.216;16.482;2023-11-19T00:05:09;11.93;;;8.53;;
35518;SDS011;21627;48.216;16.482;2023-11-19T00:07:39;14.70;;;8.70;;
35518;SDS011;21627;48.216;16.482;2023-11-19T00:10:08;20.07;;;8.83;;
35518;SDS011;21627;48.216;16.482;2023-11-19T00:12:41;16.70;;;9.30;;
35518;SDS011;21627;48.216;16.482;2023-11-19T00:15:11;14.60;;;8.90;;
35518;SDS011;21627;48.216;16.482;2023-11-19T00:17:42;14.47;;;9.33;;
35518;SDS011;21627;48.216;16.482;2023-11-19T00:20:12;20.60;;;10.10;;
35518;SDS011;21627;48.216;16.482;2023-11-19T00:22:43;22.90;;;10.27;;
35518;SDS011;21627;48.216;16.482;2023-11-19T00:25:16;18.08;;;10.30;;
35518;SDS011;21627;48.216;16.482;2023-11-19T00:27:44;26.17;;;12.10;;
35518;SDS011;21627;48.216;16.482;2023-11-19T00:30:12;22.03;;;11.07;;
35518;SDS011;21627;48.216;16.482;2023-11-19T00:32:41;23.80;;;11.80;;
35518;SDS011;21627;48.216;16.482;2023-11-19T00:35:09;22.83;;;11.47;;
35518;SDS011;21627;48.216;16.482;2023-11-19T00:37:42;17.33;;;11.13;;
35518;SDS011;21627;48.216;16.482;2023-11-19T00:40:12;19.83;;;11.03;;
35518;SDS011;21627;48.216;16.482;2023-11-19T00:42:40;18.73;;;11.83;;
35518;SDS011;21627;48.216;16.482;2023-11-19T00:45:07;18.20;;;10.43;;
35518;SDS011;21627;48.216;16.482;2023-11-19T00:47:37;18.27;;;10.13;;
35518;SDS011;21627;48.216;16.482;2023-11-19T00:50:04;24.10;;;12.53;;
35518;SDS011;21627;48.216;16.482;2023-11-19T00:52:32;32.90;;;15.87;;
35518;SDS011;21627;48.216;16.482;2023-11-19T00:54:59;28.60;;;14.90;;
35518;SDS011;21627;48.216;16.482;2023-11-19T00:57:26;22.50;;;12.17;;
35518;SDS011;21627;48.216;16.482;2023-11-19T00:59:54;15.57;;;9.80;;
35518;SDS011;21627;48.216;16.482;2023-11-19T01:02:21;15.50;;;9.10;;
35518;SDS011;21627;48.216;16.482;2023-11-19T01:04:48;14.73;;;8.37;;
35518;SDS011;21627;48.216;16.482;2023-11-19T01:07:15;13.87;;;8.87;;
35518;SDS011;21627;48.216;16.482;2023-11-19T01:09:42;13.53;;;8.73;;
35518;SDS011;21627;48.216;16.482;2023-11-19T01:12:09;13.03;;;9.40;;
35518;SDS011;21627;48.216;16.482;2023-11-19T01:14:37;16.48;;;9.23;;
35518;SDS011;21627;48.216;16.482;2023-11-19T01:17:04;13.57;;;8.77;;
35518;SDS011;21627;48.216;16.482;2023-11-19T01:19:32;11.40;;;7.93;;
35518;SDS011;21627;48.216;16.482;2023-11-19T01:21:59;13.50;;;9.00;;
35518;SDS011;21627;48.216;16.482;2023-11-19T01:24:26;14.67;;;9.10;;
35518;SDS011;21627;48.216;16.482;2023-11-19T01:26:55;16.13;;;8.67;;
35518;SDS011;21627;48.216;16.482;2023-11-19T01:29:24;14.30;;;9.23;;
35518;SDS011;21627;48.216;16.482;2023-11-19T01:31:51;16.50;;;9.30;;
35518;SDS011;21627;48.216;16.482;2023-11-19T01:34:18;12.80;;;8.60;;
35518;SDS011;21627;48.216;16.482;2023-11-19T01:36:46;11.13;;;8.30;;
35518;SDS011;21627;48.216;16.482;2023-11-19T01:39:15;16.60;;;8.70;;
35518;SDS011;21627;48.216;16.482;2023-11-19T01:41:43;17.63;;;9.50;;
35518;SDS011;21627;48.216;16.482;2023-11-19T01:44:10;13.07;;;8.77;;
35518;SDS011;21627;48.216;16.482;2023-11-19T01:46:40;13.43;;;8.80;;
35518;SDS011;21627;48.216;16.482;2023-11-19T01:49:10;13.43;;;8.80;;
35518;SDS011;21627;48.216;16.482;2023-11-19T01:51:40;20.23;;;9.03;;
35518;SDS011;21627;48.216;16.482;2023-11-19T01:54:08;13.60;;;8.70;;
35518;SDS011;21627;48.216;16.482;2023-11-19T01:56:36;18.03;;;9.73;;
35518;SDS011;21627;48.216;16.482;2023-11-19T01:59:10;12.53;;;8.57;;
35518;SDS011;21627;48.216;16.482;2023-11-19T02:01:40;15.80;;;9.20;;
35518;SDS011;21627;48.216;16.482;2023-11-19T02:04:08;15.47;;;7.97;;
35518;SDS011;21627;48.216;16.482;2023-11-19T02:06:39;12.97;;;8.40;;
35518;SDS011;21627;48.216;16.482;2023-11-19T02:09:08;13.40;;;8.03;;
35518;SDS011;21627;48.216;16.482;2023-11-19T02:11:35;14.30;;;8.10;;
35518;SDS011;21627;48.216;16.482;2023-11-19T02:14:06;12.77;;;7.70;;
35518;SDS011;21627;48.216;16.482;2023-11-19T02:16:33;12.07;;;8.40;;
35518;SDS011;21627;48.216;16.482;2023-11-19T02:19:00;15.03;;;8.33;;
35518;SDS011;21627;48.216;16.482;2023-11-19T02:21:28;11.83;;;8.63;;
35518;SDS011;21627;48.216;16.482;2023-11-19T02:23:55;16.67;;;8.27;;
35518;SDS011;21627;48.216;16.482;2023-11-19T02:29:15;17.40;;;8.20;;
35518;SDS011;21627;48.216;16.482;2023-11-19T02:31:43;13.27;;;9.10;;
35518;SDS011;21627;48.216;16.482;2023-11-19T02:34:10;12.43;;;7.77;;
35518;SDS011;21627;48.216;16.482;2023-11-19T02:36:39;11.80;;;7.63;;
35518;SDS011;21627;48.216;16.482;2023-11-19T02:39:08;18.20;;;8.60;;
35518;SDS011;21627;48.216;16.482;2023-11-19T02:41:38;15.20;;;8.15;;
35518;SDS011;21627;48.216;16.482;2023-11-19T02:44:06;10.70;;;7.13;;
35518;SDS011;21627;48.216;16.482;2023-11-19T02:46:33;14.97;;;8.23;;
35518;SDS011;21627;48.216;16.482;2023-11-19T02:49:00;13.53;;;7.60;;
35518;SDS011;21627;48.216;16.482;2023-11-19T02:51:27;14.23;;;8.27;;
35518;SDS011;21627;48.216;16.482;2023-11-19T02:53:56;9.90;;;7.83;;
35518;SDS011;21627;48.216;16.482;2023-11-19T02:56:24;11.73;;;7.90;;
35518;SDS011;21627;48.216;16.482;2023-11-19T02:58:52;10.43;;;7.80;;
35518;SDS011;21627;48.216;16.482;2023-11-19T03:01:23;13.70;;;8.43;;
35518;SDS011;21627;48.216;16.482;2023-11-19T03:03:57;11.67;;;7.60;;
35518;SDS011;21627;48.216;16.482;2023-11-19T03:06:25;12.00;;;7.73;;
35518;SDS011;21627;48.216;16.482;2023-11-19T03:08:54;12.00;;;8.52;;
35518;SDS011;21627;48.216;16.482;2023-11-19T03:11:22;12.03;;;8.03;;
35518;SDS011;21627;48.216;16.482;2023-11-19T03:13:49;12.10;;;7.72;;
35518;SDS011;21627;48.216;16.482;2023-11-19T03:16:16;10.53;;;7.40;;
35518;SDS011;21627;48.216;16.482;2023-11-19T03:18:44;10.17;;;7.07;;
35518;SDS011;21627;48.216;16.482;2023-11-19T03:21:11;12.27;;;6.85;;
35518;SDS011;21627;48.216;16.482;2023-11-19T03:23:38;8.73;;;6.73;;
35518;SDS011;21627;48.216;16.482;2023-11-19T03:26:06;10.67;;;7.00;;
35518;SDS011;21627;48.216;16.482;2023-11-19T03:28:35;10.00;;;7.47;;
35518;SDS011;21627;48.216;16.482;2023-11-19T03:31:04;11.93;;;7.83;;
35518;SDS011;21627;48.216;16.482;2023-11-19T03:33:35;9.67;;;7.40;;
35518;SDS011;21627;48.216;16.482;2023-11-19T03:36:04;9.97;;;7.97;;
35518;SDS011;21627;48.216;16.482;2023-11-19T03:38:32;10.77;;;7.20;;
35518;SDS011;21627;48.216;16.482;2023-11-19T03:40:59;10.53;;;7.17;;
35518;SDS011;21627;48.216;16.482;2023-11-19T03:43:26;9.32;;;7.40;;
35518;SDS011;21627;48.216;16.482;2023-11-19T03:45:54;11.53;;;7.47;;
35518;SDS011;21627;48.216;16.482;2023-11-19T03:48:21;10.13;;;7.43;;
35518;SDS011;21627;48.216;16.482;2023-11-19T03:50:49;10.10;;;7.53;;
35518;SDS011;21627;48.216;16.482;2023-11-19T03:53:16;8.83;;;6.70;;
35518;SDS011;21627;48.216;16.482;2023-11-19T03:55:45;11.82;;;7.43;;
35518;SDS011;21627;48.216;16.482;2023-11-19T03:58:12;10.60;;;7.30;;
35518;SDS011;21627;48.216;16.482;2023-11-19T04:00:39;13.27;;;7.37;;
35518;SDS011;21627;48.216;16.482;2023-11-19T04:03:07;10.65;;;7.40;;
35518;SDS011;21627;48.216;16.482;2023-11-19T04:05:34;10.65;;;7.32;;
35518;SDS011;21627;48.216;16.482;2023-11-19T04:08:01;11.20;;;7.68;;
35518;SDS011;21627;48.216;16.482;2023-11-19T04:10:28;12.50;;;7.40;;
35518;SDS011;21627;48.216;16.482;2023-11-19T04:12:55;9.00;;;6.97;;
35518;SDS011;21627;48.216;16.482;2023-11-19T04:15:22;10.97;;;7.87;;
35518;SDS011;21627;48.216;16.482;2023-11-19T04:17:50;9.63;;;7.72;;
35518;SDS011;21627;48.216;16.482;2023-11-19T04:20:17;11.57;;;7.67;;
35518;SDS011;21627;48.216;16.482;2023-11-19T04:22:44;13.90;;;7.93;;
35518;SDS011;21627;48.216;16.482;2023-11-19T04:25:12;11.03;;;7.70;;
35518;SDS011;21627;48.216;16.482;2023-11-19T04:27:40;12.55;;;7.55;;
35518;SDS011;21627;48.216;16.482;2023-11-19T04:30:07;12.20;;;8.65;;
35518;SDS011;21627;48.216;16.482;2023-11-19T04:32:37;11.83;;;8.20;;
35518;SDS011;21627;48.216;16.482;2023-11-19T04:35:04;13.33;;;8.33;;
35518;SDS011;21627;48.216;16.482;2023-11-19T04:37:33;12.70;;;8.05;;
35518;SDS011;21627;48.216;16.482;2023-11-19T04:40:01;13.40;;;8.27;;
35518;SDS011;21627;48.216;16.482;2023-11-19T04:42:31;11.77;;;9.57;;
35518;SDS011;21627;48.216;16.482;2023-11-19T04:44:58;14.50;;;9.33;;
35518;SDS011;21627;48.216;16.482;2023-11-19T04:47:25;16.17;;;10.07;;
35518;SDS011;21627;48.216;16.482;2023-11-19T04:49:53;10.63;;;8.18;;
35518;SDS011;21627;48.216;16.482;2023-11-19T04:52:20;13.57;;;8.97;;
35518;SDS011;21627;48.216;16.482;2023-11-19T04:54:47;12.97;;;8.63;;
35518;SDS011;21627;48.216;16.482;2023-11-19T04:57:14;12.67;;;8.47;;
35518;SDS011;21627;48.216;16.482;2023-11-19T04:59:41;11.97;;;8.77;;
35518;SDS011;21627;48.216;16.482;2023-11-19T05:02:09;12.17;;;8.80;;
35518;SDS011;21627;48.216;16.482;2023-11-19T05:04:36;12.63;;;8.23;;
35518;SDS011;21627;48.216;16.482;2023-11-19T05:07:06;11.20;;;8.73;;
35518;SDS011;21627;48.216;16.482;2023-11-19T05:09:33;12.87;;;9.40;;
35518;SDS011;21627;48.216;16.482;2023-11-19T05:12:00;14.90;;;9.57;;
35518;SDS011;21627;48.216;16.482;2023-11-19T05:14:28;14.57;;;9.90;;
35518;SDS011;21627;48.216;16.482;2023-11-19T05:16:55;14.63;;;9.68;;
35518;SDS011;21627;48.216;16.482;2023-11-19T05:19:23;13.67;;;9.97;;
35518;SDS011;21627;48.216;16.482;2023-11-19T05:21:50;13.30;;;9.60;;
35518;SDS011;21627;48.216;16.482;2023-11-19T05:24:18;14.18;;;9.75;;
35518;SDS011;21627;48.216;16.482;2023-11-19T05:26:46;15.20;;;9.73;;
35518;SDS011;21627;48.216;16.482;2023-11-19T05:29:13;13.60;;;9.73;;
35518;SDS011;21627;48.216;16.482;2023-11-19T05:31:40;17.17;;;10.27;;
35518;SDS011;21627;48.216;16.482;2023-11-19T05:34:10;14.83;;;9.43;;
35518;SDS011;21627;48.216;16.482;2023-11-19T05:36:38;14.93;;;10.13;;
35518;SDS011;21627;48.216;16.482;2023-11-19T05:39:06;13.80;;;9.40;;
35518;SDS011;21627;48.216;16.482;2023-11-19T05:41:33;17.47;;;10.93;;
35518;SDS011;21627;48.216;16.482;2023-11-19T05:44:00;15.53;;;10.93;;
35518;SDS011;21627;48.216;16.482;2023-11-19T05:46:27;16.53;;;10.47;;
35518;SDS011;21627;48.216;16.482;2023-11-19T05:48:55;17.30;;;10.90;;
35518;SDS011;21627;48.216;16.482;2023-11-19T05:51:22;14.80;;;10.57;;
35518;SDS011;21627;48.216;16.482;2023-11-19T05:53:51;15.83;;;10.00;;
35518;SDS011;21627;48.216;16.482;2023-11-19T05:56:18;17.13;;;10.07;;
35518;SDS011;21627;48.216;16.482;2023-11-19T05:58:48;14.10;;;10.40;;
35518;SDS011;21627;48.216;16.482;2023-11-19T06:01:16;14.53;;;9.57;;
35518;SDS011;21627;48.216;16.482;2023-11-19T06:03:43;17.00;;;9.87;;
35518;SDS011;21627;48.216;16.482;2023-11-19T06:06:16;15.67;;;10.30;;
35518;SDS011;21627;48.216;16.482;2023-11-19T06:08:43;18.70;;;10.57;;
35518;SDS011;21627;48.216;16.482;2023-11-19T06:11:10;12.97;;;9.80;;
35518;SDS011;21627;48.216;16.482;2023-11-19T06:13:44;14.60;;;9.70;;
35518;SDS011;21627;48.216;16.482;2023-11-19T06:16:12;16.87;;;10.47;;
35518;SDS011;21627;48.216;16.482;2023-11-19T06:18:40;14.17;;;9.97;;
35518;SDS011;21627;48.216;16.482;2023-11-19T06:21:08;15.33;;;10.60;;
35518;SDS011;21627;48.216;16.482;2023-11-19T06:23:35;16.97;;;10.50;;
35518;SDS011;21627;48.216;16.482;2023-11-19T06:26:02;15.73;;;10.87;;
35518;SDS011;21627;48.216;16.482;2023-11-19T06:28:29;16.90;;;10.87;;
35518;SDS011;21627;48.216;16.482;2023-11-19T06:30:56;16.67;;;10.97;;
35518;SDS011;21627;48.216;16.482;2023-11-19T06:33:24;16.30;;;10.90;;
35518;SDS011;21627;48.216;16.482;2023-11-19T06:35:51;16.47;;;11.63;;
35518;SDS011;21627;48.216;16.482;2023-11-19T06:38:19;17.37;;;11.07;;
35518;SDS011;21627;48.216;16.482;2023-11-19T06:40:46;17.60;;;11.57;;
35518;SDS011;21627;48.216;16.482;2023-11-19T06:43:18;18.07;;;11.17;;
35518;SDS011;21627;48.216;16.482;2023-11-19T06:45:45;20.80;;;11.47;;
35518;SDS011;21627;48.216;16.482;2023-11-19T06:48:12;18.50;;;12.40;;
35518;SDS011;21627;48.216;16.482;2023-11-19T06:50:39;18.40;;;11.37;;
35518;SDS011;21627;48.216;16.482;2023-11-19T06:53:06;18.23;;;11.65;;
35518;SDS011;21627;48.216;16.482;2023-11-19T06:55:36;17.93;;;11.63;;
35518;SDS011;21627;48.216;16.482;2023-11-19T06:58:05;16.57;;;11.77;;
35518;SDS011;21627;48.216;16.482;2023-11-19T07:00:33;21.87;;;13.17;;
35518;SDS011;21627;48.216;16.482;2023-11-19T07:03:02;27.97;;;17.47;;
35518;SDS011;21627;48.216;16.482;2023-11-19T07:05:29;21.33;;;13.90;;
35518;SDS011;21627;48.216;16.482;2023-11-19T07:07:56;17.90;;;12.70;;
35518;SDS011;21627;48.216;16.482;2023-11-19T07:10:23;21.30;;;13.10;;
35518;SDS011;21627;48.216;16.482;2023-11-19T07:12:51;17.60;;;11.93;;
35518;SDS011;21627;48.216;16.482;2023-11-19T07:15:18;19.67;;;12.70;;
35518;SDS011;21627;48.216;16.482;2023-11-19T07:17:45;15.37;;;11.50;;
35518;SDS011;21627;48.216;16.482;2023-11-19T07:20:12;17.73;;;11.93;;
35518;SDS011;21627;48.216;16.482;2023-11-19T07:22:45;15.67;;;11.13;;
35518;SDS011;21627;48.216;16.482;2023-11-19T07:25:15;16.33;;;10.73;;
35518;SDS011;21627;48.216;16.482;2023-11-19T07:27:42;18.57;;;11.10;;
35518;SDS011;21627;48.216;16.482;2023-11-19T07:30:09;18.27;;;10.63;;
35518;SDS011;21627;48.216;16.482;2023-11-19T07:32:36;16.53;;;10.40;;
35518;SDS011;21627;48.216;16.482;2023-11-19T07:35:05;16.37;;;10.77;;
35518;SDS011;21627;48.216;16.482;2023-11-19T07:37:33;16.33;;;11.02;;
35518;SDS011;21627;48.216;16.482;2023-11-19T07:40:00;15.10;;;10.43;;
35518;SDS011;21627;48.216;16.482;2023-11-19T07:42:28;15.67;;;10.23;;
35518;SDS011;21627;48.216;16.482;2023-11-19T07:44:55;17.97;;;10.53;;
35518;SDS011;21627;48.216;16.482;2023-11-19T07:47:23;13.73;;;9.73;;
35518;SDS011;21627;48.216;16.482;2023-11-19T07:49:50;15.47;;;10.50;;
35518;SDS011;21627;48.216;16.482;2023-11-19T07:52:18;14.77;;;10.43;;
35518;SDS011;21627;48.216;16.482;2023-11-19T07:54:48;17.97;;;11.60;;
35518;SDS011;21627;48.216;16.482;2023-11-19T07:57:15;19.10;;;10.17;;
35518;SDS011;21627;48.216;16.482;2023-11-19T07:59:42;15.57;;;10.10;;
35518;SDS011;21627;48.216;16.482;2023-11-19T08:02:09;14.53;;;10.27;;
35518;SDS011;21627;48.216;16.482;2023-11-19T08:04:37;14.67;;;10.27;;
35518;SDS011;21627;48.216;16.482;2023-11-19T08:07:06;18.83;;;11.57;;
35518;SDS011;21627;48.216;16.482;2023-11-19T08:09:33;17.40;;;11.73;;
35518;SDS011;21627;48.216;16.482;2023-11-19T08:12:00;16.53;;;11.27;;
35518;SDS011;21627;48.216;16.482;2023-11-19T08:14:27;16.57;;;11.33;;
35518;SDS011;21627;48.216;16.482;2023-11-19T08:16:55;17.43;;;11.43;;
35518;SDS011;21627;48.216;16.482;2023-11-19T08:19:22;20.07;;;11.47;;
35518;SDS011;21627;48.216;16.482;2023-11-19T08:21:49;17.70;;;11.63;;
35518;SDS011;21627;48.216;16.482;2023-11-19T08:24:16;21.57;;;11.43;;
35518;SDS011;21627;48.216;16.482;2023-11-19T08:26:43;15.90;;;10.97;;
35518;SDS011;21627;48.216;16.482;2023-11-19T08:29:10;17.00;;;10.33;;
35518;SDS011;21627;48.216;16.482;2023-11-19T08:31:37;16.70;;;10.93;;
35518;SDS011;21627;48.216;16.482;2023-11-19T08:34:04;17.10;;;11.25;;
35518;SDS011;21627;48.216;16.482;2023-11-19T08:36:35;16.43;;;11.73;;
35518;SDS011;21627;48.216;16.482;2023-11-19T08:39:02;15.07;;;10.00;;
35518;SDS011;21627;48.216;16.482;2023-11-19T08:41:29;18.50;;;11.20;;
35518;SDS011;21627;48.216;16.482;2023-11-19T08:43:56;17.00;;;10.73;;
35518;SDS011;21627;48.216;16.482;2023-11-19T08:46:23;17.63;;;11.67;;
35518;SDS011;21627;48.216;16.482;2023-11-19T08:48:52;16.77;;;10.93;;
35518;SDS011;21627;48.216;16.482;2023-11-19T08:51:22;17.23;;;10.83;;
35518;SDS011;21627;48.216;16.482;2023-11-19T08:53:51;18.10;;;12.57;;
35518;SDS011;21627;48.216;16.482;2023-11-19T08:56:18;15.43;;;10.90;;
35518;SDS011;21627;48.216;16.482;2023-11-19T08:58:45;21.20;;;12.20;;
35518;SDS011;21627;48.216;16.482;2023-11-19T09:01:12;16.77;;;11.30;;
35518;SDS011;21627;48.216;16.482;2023-11-19T09:03:40;16.67;;;11.35;;
35518;SDS011;21627;48.216;16.482;2023-11-19T09:06:07;18.50;;;12.43;;
35518;SDS011;21627;48.216;16.482;2023-11-19T09:08:34;17.67;;;12.43;;
35518;SDS011;21627;48.216;16.482;2023-11-19T09:11:06;17.55;;;12.45;;
35518;SDS011;21627;48.216;16.482;2023-11-19T09:13:35;16.30;;;12.20;;
35518;SDS011;21627;48.216;16.482;2023-11-19T09:16:02;19.65;;;11.73;;
35518;SDS011;21627;48.216;16.482;2023-11-19T09:18:30;21.10;;;12.35;;
35518;SDS011;21627;48.216;16.482;2023-11-19T09:20:58;18.97;;;13.43;;
35518;SDS011;21627;48.216;16.482;2023-11-19T09:23:26;19.33;;;12.30;;
35518;SDS011;21627;48.216;16.482;2023-11-19T09:25:55;17.27;;;12.38;;
35518;SDS011;21627;48.216;16.482;2023-11-19T09:28:22;17.83;;;11.97;;
35518;SDS011;21627;48.216;16.482;2023-11-19T09:30:49;17.23;;;11.23;;
35518;SDS011;21627;48.216;16.482;2023-11-19T09:33:16;15.45;;;11.00;;
35518;SDS011;21627;48.216;16.482;2023-11-19T09:35:44;17.17;;;11.10;;
35518;SDS011;21627;48.216;16.482;2023-11-19T09:38:12;16.35;;;10.65;;
35518;SDS011;21627;48.216;16.482;2023-11-19T09:40:40;18.23;;;10.73;;
35518;SDS011;21627;48.216;16.482;2023-11-19T09:43:07;14.90;;;10.90;;
35518;SDS011;21627;48.216;16.482;2023-11-19T09:45:50;15.60;;;10.13;;
35518;SDS011;21627;48.216;16.482;2023-11-19T09:48:19;14.30;;;10.38;;
35518;SDS011;21627;48.216;16.482;2023-11-19T09:50:47;15.13;;;10.70;;
35518;SDS011;21627;48.216;16.482;2023-11-19T09:53:15;13.60;;;9.45;;
35518;SDS011;21627;48.216;16.482;2023-11-19T09:55:43;12.32;;;9.10;;
35518;SDS011;21627;48.216;16.482;2023-11-19T09:58:11;12.95;;;8.82;;
35518;SDS011;21627;48.216;16.482;2023-11-19T10:00:40;10.65;;;7.35;;
35518;SDS011;21627;48.216;16.482;2023-11-19T10:03:08;10.85;;;7.88;;
35518;SDS011;21627;48.216;16.482;2023-11-19T10:05:39;10.88;;;8.82;;
35518;SDS011;21627;48.216;16.482;2023-11-19T10:08:07;10.93;;;8.40;;
35518;SDS011;21627;48.216;16.482;2023-11-19T10:10:34;12.70;;;9.35;;
35518;SDS011;21627;48.216;16.482;2023-11-19T10:13:01;11.23;;;8.85;;
35518;SDS011;21627;48.216;16.482;2023-11-19T10:15:29;18.25;;;10.07;;
35518;SDS011;21627;48.216;16.482;2023-11-19T10:18:03;12.55;;;9.15;;
35518;SDS011;21627;48.216;16.482;2023-11-19T10:20:35;14.43;;;9.77;;
35518;SDS011;21627;48.216;16.482;2023-11-19T10:23:03;15.90;;;10.82;;
35518;SDS011;21627;48.216;16.482;2023-11-19T10:25:30;15.55;;;10.73;;
35518;SDS011;21627;48.216;16.482;2023-11-19T10:27:59;16.83;;;11.38;;
35518;SDS011;21627;48.216;16.482;2023-11-19T10:30:27;15.05;;;11.10;;
35518;SDS011;21627;48.216;16.482;2023-11-19T10:33:11;15.52;;;10.52;;
35518;SDS011;21627;48.216;16.482;2023-11-19T10:35:54;17.00;;;10.68;;
35518;SDS011;21627;48.216;16.482;2023-11-19T10:38:26;14.18;;;10.48;;
35518;SDS011;21627;48.216;16.482;2023-11-19T10:40:54;15.60;;;10.57;;
35518;SDS011;21627;48.216;16.482;2023-11-19T10:43:22;15.02;;;10.18;;
35518;SDS011;21627;48.216;16.482;2023-11-19T10:45:50;12.68;;;9.25;;
35518;SDS011;21627;48.216;16.482;2023-11-19T10:48:18;14.70;;;10.50;;
35518;SDS011;21627;48.216;16.482;2023-11-19T10:50:46;17.60;;;9.82;;
35518;SDS011;21627;48.216;16.482;2023-11-19T10:53:21;15.07;;;10.07;;
35518;SDS011;21627;48.216;16.482;2023-11-19T10:55:52;16.10;;;10.25;;
35518;SDS011;21627;48.216;16.482;2023-11-19T10:58:24;13.77;;;10.27;;
35518;SDS011;21627;48.216;16.482;2023-11-19T11:00:55;17.63;;;10.90;;
35518;SDS011;21627;48.216;16.482;2023-11-19T11:03:29;16.80;;;11.32;;
35518;SDS011;21627;48.216;16.482;2023-11-19T11:06:06;16.40;;;11.70;;
35518;SDS011;21627;48.216;16.482;2023-11-19T11:08:36;17.77;;;11.90;;
35518;SDS011;21627;48.216;16.482;2023-11-19T11:11:05;17.33;;;11.98;;
35518;SDS011;21627;48.216;16.482;2023-11-19T11:13:35;15.55;;;10.90;;
35518;SDS011;21627;48.216;16.482;2023-11-19T11:16:03;13.68;;;9.40;;
35518;SDS011;21627;48.216;16.482;2023-11-19T11:18:33;14.38;;;9.23;;
35518;SDS011;21627;48.216;16.482;2023-11-19T11:21:01;15.43;;;10.70;;
35518;SDS011;21627;48.216;16.482;2023-11-19T11:38:24;16.83;;;12.32;;
35518;SDS011;21627;48.216;16.482;2023-11-19T11:41:26;20.77;;;12.65;;
35518;SDS011;21627;48.216;16.482;2023-11-19T11:43:55;18.52;;;11.85;;
35518;SDS011;21627;48.216;16.482;2023-11-19T11:49:00;17.17;;;11.23;;
35518;SDS011;21627;48.216;16.482;2023-11-19T11:59:43;18.30;;;11.98;;
35518;SDS011;21627;48.216;16.482;2023-11-19T12:02:14;14.15;;;10.82;;
35518;SDS011;21627;48.216;16.482;2023-11-19T12:04:48;15.38;;;11.00;;
35518;SDS011;21627;48.216;16.482;2023-11-19T12:07:19;20.98;;;11.07;;
35518;SDS011;21627;48.216;16.482;2023-11-19T12:09:53;16.95;;;11.75;;
35518;SDS011;21627;48.216;16.482;2023-11-19T12:12:34;21.00;;;12.82;;
35518;SDS011;21627;48.216;16.482;2023-11-19T12:15:06;18.52;;;11.63;;
35518;SDS011;21627;48.216;16.482;2023-11-19T12:17:41;20.13;;;12.57;;
35518;SDS011;21627;48.216;16.482;2023-11-19T12:20:12;16.75;;;12.40;;
35518;SDS011;21627;48.216;16.482;2023-11-19T12:22:40;17.95;;;11.25;;
35518;SDS011;21627;48.216;16.482;2023-11-19T12:25:09;17.63;;;11.80;;
35518;SDS011;21627;48.216;16.482;2023-11-19T12:27:41;21.13;;;13.20;;
35518;SDS011;21627;48.216;16.482;2023-11-19T12:30:17;20.35;;;13.68;;
35518;SDS011;21627;48.216;16.482;2023-11-19T12:32:52;19.35;;;12.48;;
35518;SDS011;21627;48.216;16.482;2023-11-19T12:35:20;20.35;;;13.30;;
35518;SDS011;21627;48.216;16.482;2023-11-19T12:37:51;18.58;;;12.38;;
35518;SDS011;21627;48.216;16.482;2023-11-19T12:40:20;21.20;;;13.90;;
35518;SDS011;21627;48.216;16.482;2023-11-19T12:42:51;19.15;;;12.65;;
35518;SDS011;21627;48.216;16.482;2023-11-19T12:45:20;22.00;;;13.05;;
35518;SDS011;21627;48.216;16.482;2023-11-19T12:47:49;21.58;;;14.45;;
35518;SDS011;21627;48.216;16.482;2023-11-19T12:50:31;16.65;;;12.05;;
35518;SDS011;21627;48.216;16.482;2023-11-19T12:53:26;23.42;;;13.70;;
35518;SDS011;21627;48.216;16.482;2023-11-19T12:55:53;24.33;;;14.07;;
35518;SDS011;21627;48.216;16.482;2023-11-19T12:58:30;21.92;;;14.23;;
35518;SDS011;21627;48.216;16.482;2023-11-19T13:01:00;18.58;;;13.15;;
35518;SDS011;21627;48.216;16.482;2023-11-19T13:03:30;20.73;;;13.47;;
35518;SDS011;21627;48.216;16.482;2023-11-19T13:08:44;22.58;;;13.55;;
35518;SDS011;21627;48.216;16.482;2023-11-19T13:11:30;25.15;;;13.90;;
35518;SDS011;21627;48.216;16.482;2023-11-19T13:14:02;22.40;;;14.20;;
35518;SDS011;21627;48.216;16.482;2023-11-19T13:16:31;20.85;;;13.50;;
35518;SDS011;21627;48.216;16.482;2023-11-19T13:18:59;19.65;;;13.43;;
35518;SDS011;21627;48.216;16.482;2023-11-19T13:21:27;20.50;;;13.57;;
35518;SDS011;21627;48.216;16.482;2023-11-19T13:23:56;25.02;;;15.02;;
35518;SDS011;21627;48.216;16.482;2023-11-19T13:26:23;19.70;;;13.57;;
35518;SDS011;21627;48.216;16.482;2023-11-19T13:28:50;23.67;;;14.02;;
35518;SDS011;21627;48.216;16.482;2023-11-19T13:31:17;21.98;;;14.68;;
35518;SDS011;21627;48.216;16.482;2023-11-19T13:33:45;26.45;;;14.52;;
35518;SDS011;21627;48.216;16.482;2023-11-19T13:36:12;26.67;;;15.45;;
35518;SDS011;21627;48.216;16.482;2023-11-19T13:38:42;21.63;;;14.05;;
35518;SDS011;21627;48.216;16.482;2023-11-19T13:41:13;26.20;;;15.63;;
35518;SDS011;21627;48.216;16.482;2023-11-19T13:43:40;22.35;;;14.55;;
35518;SDS011;21627;48.216;16.482;2023-11-19T13:46:08;22.38;;;13.88;;
35518;SDS011;21627;48.216;16.482;2023-11-19T13:48:37;31.38;;;15.63;;
35518;SDS011;21627;48.216;16.482;2023-11-19T13:51:05;23.58;;;14.57;;
35518;SDS011;21627;48.216;16.482;2023-11-19T13:53:32;24.98;;;15.50;;
35518;SDS011;21627;48.216;16.482;2023-11-19T13:56:17;26.25;;;16.17;;
35518;SDS011;21627;48.216;16.482;2023-11-19T13:58:45;30.02;;;17.48;;
35518;SDS011;21627;48.216;16.482;2023-11-19T14:01:12;31.30;;;17.63;;
35518;SDS011;21627;48.216;16.482;2023-11-19T14:03:41;25.88;;;16.75;;
35518;SDS011;21627;48.216;16.482;2023-11-19T14:06:08;28.00;;;17.63;;
35518;SDS011;21627;48.216;16.482;2023-11-19T14:08:36;24.17;;;16.05;;
35518;SDS011;21627;48.216;16.482;2023-11-19T14:11:04;26.25;;;17.17;;
35518;SDS011;21627;48.216;16.482;2023-11-19T14:13:31;21.15;;;15.30;;
35518;SDS011;21627;48.216;16.482;2023-11-19T14:15:59;20.42;;;14.25;;
35518;SDS011;21627;48.216;16.482;2023-11-19T14:18:27;24.38;;;15.13;;
35518;SDS011;21627;48.216;16.482;2023-11-19T14:20:55;24.77;;;15.57;;
35518;SDS011;21627;48.216;16.482;2023-11-19T14:23:22;20.75;;;14.23;;
35518;SDS011;21627;48.216;16.482;2023-11-19T14:25:50;24.25;;;15.05;;
35518;SDS011;21627;48.216;16.482;2023-11-19T14:28:17;21.38;;;15.25;;
35518;SDS011;21627;48.216;16.482;2023-11-19T14:30:45;20.80;;;14.60;;
35518;SDS011;21627;48.216;16.482;2023-11-19T14:33:14;25.52;;;15.55;;
35518;SDS011;21627;48.216;16.482;2023-11-19T14:35:41;25.08;;;15.02;;
35518;SDS011;21627;48.216;16.482;2023-11-19T14:38:08;22.17;;;14.02;;
35518;SDS011;21627;48.216;16.482;2023-11-19T14:40:36;19.00;;;13.95;;
35518;SDS011;21627;48.216;16.482;2023-11-19T14:43:06;21.33;;;13.80;;
35518;SDS011;21627;48.216;16.482;2023-11-19T14:45:37;22.48;;;14.82;;
35518;SDS011;21627;48.216;16.482;2023-11-19T14:48:14;21.58;;;14.23;;
35518;SDS011;21627;48.216;16.482;2023-11-19T14:50:44;19.30;;;13.05;;
35518;SDS011;21627;48.216;16.482;2023-11-19T14:53:11;22.35;;;13.73;;